Time;durP1;ratioP1;P1;durP2;ratioP2;P2;SDS_P1;SDS_P2;PMS_P1;PMS_P2;Temp;Humidity;BMP_temperature;BMP_pressure;BME280_temperature;BME280_humidity;BME280_pressure;Samples;Min_cycle;Max_cycle;Signal;HPM_P1;HPM_P2
2022/03/14 00:00:59;;;;;;;81.15;22.58;;;;;;;3.10;60.59;101829.25;713791;1174;114332;-77
2022/03/14 00:16:03;;;;;;;78.60;25.60;;;;;;;2.95;60.58;101834.91;713407;1174;115277;-77
2022/03/14 00:31:06;;;;;;;78.15;23.78;;;;;;;2.77;61.15;101833.73;714147;1174;115202;-78
2022/03/14 00:46:08;;;;;;;51.30;18.30;;;;;;;2.60;61.13;101844.60;713413;1174;115092;-78
2022/03/14 01:01:10;;;;;;;66.08;22.85;;;;;;;2.47;61.95;101844.14;713315;1175;115906;-77
2022/03/14 01:16:13;;;;;;;41.68;16.10;;;;;;;2.40;61.59;101859.02;713499;1174;114260;-77
2022/03/14 01:31:15;;;;;;;45.25;17.33;;;;;;;2.39;61.74;101854.72;713276;1174;114239;-77
2022/03/14 01:46:18;;;;;;;44.30;16.98;;;;;;;2.21;61.85;101852.65;713342;1174;114783;-77
2022/03/14 02:01:20;;;;;;;29.70;12.90;;;;;;;2.18;62.26;101857.89;713285;1176;115070;-77
2022/03/14 02:16:23;;;;;;;24.80;11.95;;;;;;;1.97;62.52;101867.97;713600;1174;114996;-77
2022/03/14 02:31:26;;;;;;;33.85;12.70;;;;;;;1.83;62.94;101860.55;713879;1177;115154;-73
2022/03/14 02:46:29;;;;;;;30.18;12.95;;;;;;;1.60;63.70;101868.92;713432;1174;115510;-74
2022/03/14 03:01:31;;;;;;;30.20;13.20;;;;;;;1.51;64.11;101880.34;713281;1177;114992;-74
2022/03/14 03:16:34;;;;;;;26.83;11.17;;;;;;;1.44;64.16;101886.53;713594;1174;115478;-74
2022/03/14 03:31:36;;;;;;;30.43;12.83;;;;;;;1.26;64.05;101890.42;713885;1175;114307;-74
2022/03/14 03:46:38;;;;;;;30.33;12.47;;;;;;;1.16;64.51;101893.23;713996;1175;115296;-75
2022/03/14 04:01:41;;;;;;;34.18;13.63;;;;;;;1.09;64.58;101889.06;717399;1165;116058;-74
2022/03/14 04:16:44;;;;;;;57.88;18.43;;;;;;;1.01;65.39;101898.73;713713;1175;114639;-75
2022/03/14 04:31:46;;;;;;;29.40;13.73;;;;;;;0.92;65.32;101917.86;713540;1176;115427;-74
2022/03/14 04:46:48;;;;;;;28.68;12.85;;;;;;;0.76;64.70;101913.92;713042;1177;115706;-75
2022/03/14 05:01:50;;;;;;;30.35;13.93;;;;;;;0.69;65.58;101917.50;713004;1177;115296;-75
2022/03/14 05:16:53;;;;;;;36.10;14.45;;;;;;;0.67;65.00;101922.70;713197;1176;115287;-75
2022/03/14 05:31:56;;;;;;;75.53;24.30;;;;;;;0.71;65.12;101920.91;713342;1175;115368;-75
2022/03/14 05:46:58;;;;;;;81.73;30.20;;;;;;;0.86;65.27;101927.48;713068;1176;115126;-80
2022/03/14 06:02:00;;;;;;;47.40;20.15;;;;;;;1.07;66.17;101942.55;713327;1177;115763;-75
2022/03/14 06:17:03;;;;;;;86.83;32.87;;;;;;;1.60;66.37;101949.95;713124;1176;115299;-75
2022/03/14 06:32:06;;;;;;;79.60;28.20;;;;;;;2.22;66.18;101951.01;713457;1177;115235;-75
2022/03/14 06:47:10;;;;;;;63.33;26.68;;;;;;;3.29;65.97;101954.00;713947;1177;115067;-71
2022/03/14 07:02:12;;;;;;;55.75;22.03;;;;;;;4.37;64.37;101970.40;713798;1177;115775;-71
2022/03/14 07:17:15;;;;;;;88.73;34.47;;;;;;;5.17;62.57;101987.41;713918;1177;115613;-72
2022/03/14 07:32:18;;;;;;;37.98;17.80;;;;;;;6.24;61.16;101991.86;713503;1177;115592;-72
2022/03/14 07:47:20;;;;;;;25.90;12.45;;;;;;;7.04;60.13;101984.02;713307;1175;115248;-72
2022/03/14 08:02:23;;;;;;;32.20;15.50;;;;;;;7.75;58.34;101976.27;715122;1175;115135;-77
2022/03/14 08:17:25;;;;;;;33.50;15.63;;;;;;;8.31;56.43;101981.33;715048;1175;116074;-84
2022/03/14 08:32:28;;;;;;;38.53;16.50;;;;;;;9.07;55.85;101978.22;713578;1177;115199;-80
2022/03/14 08:47:31;;;;;;;65.00;23.80;;;;;;;9.59;54.38;101976.23;713084;1175;115414;-79
2022/03/14 09:02:35;;;;;;;47.90;19.10;;;;;;;10.12;52.80;101968.79;713223;1177;115135;-80
2022/03/14 09:17:54;;;;;;;26.70;14.83;;;;;;;10.37;50.53;101959.48;713475;1177;115981;-80
2022/03/14 09:32:56;;;;;;;38.03;19.38;;;;;;;11.14;49.12;101958.19;713926;1174;114563;-79
2022/03/14 09:48:01;;;;;;;54.98;24.58;;;;;;;11.64;48.17;101955.01;713654;1167;114518;-81
2022/03/14 10:03:10;;;;;;;38.03;19.88;;;;;;;12.58;47.60;101945.19;713365;1176;115100;-80
2022/03/14 10:18:15;;;;;;;25.13;15.20;;;;;;;12.85;46.00;101933.63;713447;1177;116238;-76
2022/03/14 10:33:23;;;;;;;21.95;13.23;;;;;;;13.49;44.55;101933.40;713429;1176;115942;-73
2022/03/14 10:48:41;;;;;;;32.00;14.95;;;;;;;13.90;43.95;101933.88;714926;1176;115582;-82
2022/03/14 11:03:45;;;;;;;33.20;17.43;;;;;;;14.42;43.28;101924.55;713451;1177;115826;-85
2022/03/14 11:18:49;;;;;;;140.25;42.40;;;;;;;14.55;42.57;101915.67;713272;1177;115228;-84
2022/03/14 11:33:51;;;;;;;46.98;20.20;;;;;;;15.09;42.08;101896.36;713332;1177;116238;-82
2022/03/14 11:49:17;;;;;;;47.00;22.53;;;;;;;15.54;42.33;101878.63;714247;1175;115436;-82
2022/03/14 12:04:37;;;;;;;91.60;32.20;;;;;;;15.71;41.61;101859.51;713339;1176;114733;-75
2022/03/14 12:19:48;;;;;;;41.58;18.98;;;;;;;15.45;40.22;101845.84;713590;1177;116260;-75
2022/03/14 12:35:12;;;;;;;51.17;23.00;;;;;;;15.96;40.25;101845.04;713644;1175;116008;-74
2022/03/14 12:50:43;;;;;;;56.27;23.73;;;;;;;16.08;39.37;101816.67;713206;1177;115036;-75
2022/03/14 13:05:47;;;;;;;88.63;28.97;;;;;;;16.49;40.33;101806.05;712932;1175;115113;-74
2022/03/14 13:20:49;;;;;;;50.98;24.38;;;;;;;16.98;39.54;101806.09;713376;1175;114547;-75
2022/03/14 13:35:57;;;;;;;43.80;19.35;;;;;;;17.11;39.40;101806.63;713119;1175;115603;-75
2022/03/14 13:51:10;;;;;;;33.13;21.93;;;;;;;21.71;37.40;101806.38;713719;1175;115943;-81
2022/03/14 14:06:17;;;;;;;36.75;19.75;;;;;;;27.29;33.38;101816.45;713439;1175;115305;-80
2022/03/14 14:21:22;;;;;;;66.50;35.00;;;;;;;27.46;31.77;101788.05;713473;1176;116052;-82
2022/03/14 14:36:25;;;;;;;27.13;17.13;;;;;;;27.53;31.16;101783.48;713492;1174;114727;-83
2022/03/14 14:51:28;;;;;;;55.13;28.70;;;;;;;25.99;31.26;101771.82;713595;1174;115053;-83
2022/03/14 15:06:34;;;;;;;112.23;54.10;;;;;;;26.34;30.65;101771.71;713720;1177;114793;-84
2022/03/14 15:21:37;;;;;;;52.07;26.87;;;;;;;21.96;31.59;101757.34;713464;1176;116062;-83
2022/03/14 15:36:40;;;;;;;93.38;42.63;;;;;;;17.61;35.27;101757.80;713605;1175;114629;-84
2022/03/14 15:51:44;;;;;;;153.28;61.13;;;;;;;16.06;37.46;101763.05;713438;1175;115391;-83
2022/03/14 16:06:46;;;;;;;64.45;29.98;;;;;;;15.11;38.54;101764.94;713354;1177;115596;-80
2022/03/14 16:21:48;;;;;;;61.20;29.28;;;;;;;16.01;39.32;101759.96;713101;1177;115280;-81
2022/03/14 16:36:54;;;;;;;160.08;55.05;;;;;;;14.63;38.73;101752.16;713434;1175;115420;-80
2022/03/14 16:52:12;;;;;;;54.45;24.98;;;;;;;12.26;41.18;101746.50;713492;1175;115813;-82
2022/03/14 17:07:17;;;;;;;85.73;38.20;;;;;;;11.24;42.38;101743.02;713428;1175;115135;-83
2022/03/14 17:22:19;;;;;;;116.93;45.07;;;;;;;10.42;43.87;101751.00;713455;1175;115299;-81
2022/03/14 17:37:22;;;;;;;136.20;45.60;;;;;;;9.90;44.06;101742.00;713515;1177;114995;-81
2022/03/14 17:52:25;;;;;;;133.80;43.57;;;;;;;9.30;44.88;101745.63;713055;1177;114616;-80
2022/03/14 18:07:28;;;;;;;45.23;22.88;;;;;;;8.97;45.92;101754.53;713219;1175;115060;-80
2022/03/14 18:22:32;;;;;;;78.33;28.70;;;;;;;8.60;47.12;101764.48;713952;1177;116298;-75
2022/03/14 18:37:34;;;;;;;113.47;40.43;;;;;;;8.26;46.68;101779.39;713397;1176;115037;-75
2022/03/14 18:52:36;;;;;;;172.65;60.30;;;;;;;7.83;48.37;101793.83;713074;1175;116116;-74
2022/03/14 19:07:39;;;;;;;103.58;43.18;;;;;;;7.64;48.91;101783.51;713138;1174;114557;-83
2022/03/14 19:22:42;;;;;;;216.13;59.30;;;;;;;7.36;50.06;101804.12;713258;1175;115103;-79
2022/03/14 19:37:45;;;;;;;98.20;38.70;;;;;;;7.02;50.57;101788.38;713326;1175;114380;-79
2022/03/14 19:52:47;;;;;;;273.95;72.10;;;;;;;6.88;51.05;101804.70;713603;1175;115111;-81
2022/03/14 20:07:49;;;;;;;177.65;51.50;;;;;;;6.88;50.97;101803.86;713192;1177;115152;-79
2022/03/14 20:22:52;;;;;;;220.20;52.67;;;;;;;6.58;51.64;101791.36;713649;1175;115296;-79
2022/03/14 20:37:55;;;;;;;200.48;56.30;;;;;;;6.39;52.80;101796.56;713671;1175;115333;-79
2022/03/14 20:52:58;;;;;;;102.45;37.68;;;;;;;6.28;52.67;101784.04;713410;1175;115456;-79
2022/03/14 21:08:01;;;;;;;112.78;43.18;;;;;;;6.13;53.47;101781.22;713875;1176;117268;-73
2022/03/14 21:23:03;;;;;;;100.00;38.00;;;;;;;6.08;54.38;101771.92;714139;1175;115515;-72
2022/03/14 21:38:06;;;;;;;86.45;32.38;;;;;;;5.91;55.43;101749.21;714072;1177;115837;-73
2022/03/14 21:53:08;;;;;;;80.47;28.27;;;;;;;5.84;55.50;101740.83;721518;1175;115682;-72
2022/03/14 22:08:12;;;;;;;68.70;26.65;;;;;;;5.66;56.27;101730.33;714763;1177;114347;-73
2022/03/14 22:23:16;;;;;;;79.98;30.18;;;;;;;5.51;55.80;101717.98;714341;1177;114771;-73
2022/03/14 22:38:19;;;;;;;131.33;42.28;;;;;;;5.21;56.16;101714.95;713953;1175;114397;-74
2022/03/14 22:53:21;;;;;;;57.45;23.78;;;;;;;5.14;57.36;101711.77;717449;1177;114516;-73
2022/03/14 23:08:23;;;;;;;92.40;33.90;;;;;;;4.82;57.62;101701.80;713824;1175;114355;-72
2022/03/14 23:23:30;;;;;;;62.25;24.90;;;;;;;4.69;56.37;101694.58;713552;1177;115881;-73
2022/03/14 23:38:32;;;;;;;88.23;33.20;;;;;;;4.50;58.66;101692.73;714007;1175;115206;-73
2022/03/14 23:53:34;;;;;;;72.50;28.47;;;;;;;4.37;58.21;101689.77;713171;1176;115859;-74
